createdAt,value
2023-05-25T00:01:54.609Z,24.20
2023-05-25T00:04:27.009Z,24.20
2023-05-25T00:06:54.857Z,24.30
2023-05-25T00:09:22.622Z,24.30
2023-05-25T00:11:50.399Z,24.30
2023-05-25T00:14:18.092Z,24.30
2023-05-25T00:16:45.869Z,24.30
2023-05-25T00:19:13.736Z,24.30
2023-05-25T00:21:42.820Z,24.40
2023-05-25T00:24:10.530Z,24.40
2023-05-25T00:26:38.258Z,24.40
2023-05-25T00:29:07.098Z,24.40
2023-05-25T00:31:35.466Z,24.40
2023-05-25T00:34:03.447Z,24.50
2023-05-25T00:36:31.143Z,24.50
2023-05-25T00:39:00.300Z,24.50
2023-05-25T00:41:28.470Z,24.50
2023-05-25T00:43:57.378Z,24.60
2023-05-25T00:46:25.197Z,24.60
2023-05-25T00:48:53.611Z,24.60
2023-05-25T00:51:21.656Z,24.70
2023-05-25T00:53:49.392Z,24.70
2023-05-25T00:56:20.217Z,24.70
2023-05-25T00:58:48.040Z,24.70
2023-05-25T01:01:16.157Z,24.80
2023-05-25T01:03:46.544Z,24.80
2023-05-25T01:06:16.875Z,24.80
2023-05-25T01:08:46.796Z,24.80
2023-05-25T01:11:16.258Z,24.90
2023-05-25T01:13:46.601Z,24.90
2023-05-25T01:16:14.357Z,24.90
2023-05-25T01:18:43.250Z,24.90
2023-05-25T01:21:17.895Z,25.00
2023-05-25T01:23:48.817Z,25.00
2023-05-25T01:26:17.443Z,25.00
2023-05-25T01:28:47.737Z,25.10
2023-05-25T01:31:15.605Z,25.00
2023-05-25T01:33:43.705Z,25.00
2023-05-25T01:36:12.773Z,25.10
2023-05-25T01:38:40.835Z,25.10
2023-05-25T01:41:08.560Z,25.10
2023-05-25T01:43:36.265Z,25.10
2023-05-25T01:46:10.451Z,25.10
2023-05-25T01:48:41.724Z,25.10
2023-05-25T01:51:16.171Z,25.10
2023-05-25T01:53:44.664Z,25.10
2023-05-25T01:56:12.470Z,25.10
2023-05-25T01:58:41.301Z,25.10
2023-05-25T02:01:10.010Z,25.10
2023-05-25T02:03:37.956Z,25.10
2023-05-25T02:06:05.925Z,25.10
2023-05-25T02:08:37.365Z,25.10
2023-05-25T02:11:05.141Z,25.10
2023-05-25T02:13:32.869Z,25.10
2023-05-25T02:16:00.902Z,25.10
2023-05-25T02:18:29.052Z,25.10
2023-05-25T02:20:56.773Z,25.10
2023-05-25T02:23:26.134Z,25.20
2023-05-25T02:25:56.030Z,25.20
2023-05-25T02:28:25.889Z,25.20
2023-05-25T02:30:53.678Z,25.20
2023-05-25T02:33:21.513Z,25.20
2023-05-25T02:35:49.896Z,25.20
2023-05-25T02:38:17.692Z,25.20
2023-05-25T02:40:46.651Z,25.20
2023-05-25T02:43:15.993Z,25.20
2023-05-25T02:45:44.818Z,25.20
2023-05-25T02:48:13.668Z,25.20
2023-05-25T02:50:42.369Z,25.20
2023-05-25T02:53:13.959Z,25.20
2023-05-25T02:55:43.497Z,25.10
2023-05-25T02:58:17.497Z,25.10
2023-05-25T03:01:02.569Z,25.10
2023-05-25T03:03:30.596Z,25.10
2023-05-25T03:05:58.425Z,25.10
2023-05-25T03:08:26.239Z,25.10
2023-05-25T03:10:54.076Z,25.10
2023-05-25T03:13:23.443Z,25.10
2023-05-25T03:15:51.217Z,25.10
2023-05-25T03:18:19.675Z,25.10
2023-05-25T03:20:47.736Z,25.00
2023-05-25T03:23:15.552Z,25.00
2023-05-25T03:25:43.867Z,25.00
2023-05-25T03:28:11.890Z,25.00
2023-05-25T03:30:41.697Z,25.00
2023-05-25T03:33:10.991Z,25.00
2023-05-25T03:35:44.251Z,25.00
2023-05-25T03:38:12.172Z,25.00
2023-05-25T03:40:40.158Z,25.00
2023-05-25T03:43:07.986Z,25.00
2023-05-25T03:45:35.989Z,24.90
2023-05-25T03:48:05.628Z,24.90
2023-05-25T03:50:34.133Z,24.90
2023-05-25T03:53:01.895Z,24.90
2023-05-25T03:55:30.753Z,24.90
2023-05-25T03:57:58.623Z,24.90
2023-05-25T04:00:27.757Z,24.90
2023-05-25T04:02:56.943Z,24.90
2023-05-25T04:05:26.618Z,24.80
2023-05-25T04:07:54.352Z,24.80
2023-05-25T04:10:22.267Z,24.80
2023-05-25T04:12:50.040Z,24.80
2023-05-25T04:15:18.068Z,24.80
2023-05-25T04:17:55.595Z,24.80
2023-05-25T04:20:23.451Z,24.80
2023-05-25T04:22:52.710Z,24.70
2023-05-25T04:25:20.681Z,24.70
2023-05-25T04:27:49.630Z,24.70
2023-05-25T04:30:28.200Z,24.70
2023-05-25T04:33:31.375Z,24.70
2023-05-25T04:36:04.129Z,24.70
2023-05-25T04:38:33.486Z,24.70
2023-05-25T04:41:02.877Z,24.70
2023-05-25T04:43:31.891Z,24.60
2023-05-25T04:46:00.468Z,24.60
2023-05-25T04:48:32.559Z,24.60
2023-05-25T04:51:02.969Z,24.60
2023-05-25T04:53:33.383Z,24.60
2023-05-25T04:56:01.268Z,24.70
2023-05-25T04:58:29.748Z,24.70
2023-05-25T05:00:58.131Z,24.70
2023-05-25T05:03:25.997Z,24.70
2023-05-25T05:05:54.467Z,24.70
2023-05-25T05:08:29.073Z,24.70
2023-05-25T05:10:58.143Z,24.70
2023-05-25T05:13:27.354Z,24.70
2023-05-25T05:15:55.970Z,24.60
2023-05-25T05:18:24.097Z,24.60
2023-05-25T05:20:52.482Z,24.60
2023-05-25T05:23:20.718Z,24.60
2023-05-25T05:25:48.607Z,24.60
2023-05-25T05:28:18.394Z,24.60
2023-05-25T05:30:47.398Z,24.50
2023-05-25T05:33:15.812Z,24.50
2023-05-25T05:35:48.588Z,24.50
2023-05-25T05:38:21.197Z,24.50
2023-05-25T05:40:49.396Z,24.50
2023-05-25T05:43:23.364Z,24.50
2023-05-25T05:45:51.097Z,24.50
2023-05-25T05:48:44.680Z,24.50
2023-05-25T05:51:12.505Z,24.50
2023-05-25T05:53:40.221Z,24.50
2023-05-25T05:56:11.470Z,24.50
2023-05-25T05:58:41.761Z,24.50
2023-05-25T06:01:09.605Z,24.50
2023-05-25T06:03:37.970Z,24.50
2023-05-25T06:06:06.907Z,24.50
2023-05-25T06:08:36.456Z,24.50
2023-05-25T06:11:04.212Z,24.50
2023-05-25T06:13:31.983Z,24.50
2023-05-25T06:16:01.069Z,24.50
2023-05-25T06:18:28.973Z,24.50
2023-05-25T06:20:58.257Z,24.50
2023-05-25T06:23:26.879Z,24.50
2023-05-25T06:25:55.089Z,24.50
2023-05-25T06:28:22.920Z,24.50
2023-05-25T06:30:51.256Z,24.50
2023-05-25T06:33:20.594Z,24.50
2023-05-25T06:35:48.515Z,24.50
2023-05-25T06:38:16.486Z,24.50
2023-05-25T06:40:44.240Z,24.50
2023-05-25T06:43:12.117Z,24.50
2023-05-25T06:45:56.019Z,24.50
2023-05-25T06:48:25.179Z,24.50
2023-05-25T06:50:53.323Z,24.40
2023-05-25T06:53:21.093Z,24.40
2023-05-25T06:55:49.270Z,24.40
2023-05-25T06:58:17.438Z,24.40
2023-05-25T07:00:46.638Z,24.40
2023-05-25T07:03:14.726Z,24.40
2023-05-25T07:05:44.059Z,24.30
2023-05-25T07:08:11.952Z,24.30
2023-05-25T07:10:39.679Z,24.30
2023-05-25T07:13:07.393Z,24.30
2023-05-25T07:15:35.093Z,24.30
2023-05-25T07:18:03.397Z,24.30
2023-05-25T07:20:31.198Z,24.40
2023-05-25T07:23:00.269Z,24.40
2023-05-25T07:25:27.972Z,24.40
2023-05-25T07:27:55.943Z,24.30
2023-05-25T07:30:23.804Z,24.40
2023-05-25T07:32:51.673Z,24.40
2023-05-25T07:35:19.461Z,24.40
2023-05-25T07:37:47.187Z,24.40
2023-05-25T07:40:16.374Z,24.40
2023-05-25T07:42:44.626Z,24.40
2023-05-25T07:45:12.859Z,24.40
2023-05-25T07:47:40.601Z,24.40
2023-05-25T07:50:09.019Z,24.40
2023-05-25T07:52:38.173Z,24.40
2023-05-25T07:55:06.792Z,24.40
2023-05-25T07:57:35.938Z,24.40
2023-05-25T08:00:04.816Z,24.40
2023-05-25T08:02:40.881Z,24.40
2023-05-25T08:05:10.036Z,24.40
2023-05-25T08:07:39.576Z,24.40
2023-05-25T08:10:09.722Z,24.50
2023-05-25T08:12:48.888Z,24.50
2023-05-25T08:15:17.730Z,24.40
2023-05-25T08:17:45.619Z,24.50
2023-05-25T08:20:13.713Z,24.50
2023-05-25T08:22:41.610Z,24.50
2023-05-25T08:25:09.644Z,24.50
2023-05-25T08:27:38.678Z,24.50
2023-05-25T08:30:09.320Z,24.50
2023-05-25T08:32:37.088Z,24.40
2023-05-25T08:35:05.242Z,24.50
2023-05-25T08:37:33.289Z,24.50
2023-05-25T08:40:02.551Z,24.50
2023-05-25T08:42:30.449Z,24.50
2023-05-25T08:44:59.719Z,24.40
2023-05-25T08:47:27.563Z,24.50
2023-05-25T08:49:55.284Z,24.50
2023-05-25T08:52:24.120Z,24.40
2023-05-25T08:54:52.229Z,24.40
2023-05-25T08:57:21.858Z,24.40
2023-05-25T08:59:52.951Z,24.50
2023-05-25T09:02:27.563Z,24.50
2023-05-25T09:04:55.340Z,24.50
2023-05-25T09:07:23.146Z,24.50
2023-05-25T09:09:50.896Z,24.50
2023-05-25T09:12:18.758Z,24.50
2023-05-25T09:14:47.757Z,24.50
2023-05-25T09:17:16.114Z,24.50
2023-05-25T09:19:45.295Z,24.50
2023-05-25T09:22:16.255Z,24.50
2023-05-25T09:24:45.325Z,24.50
2023-05-25T09:27:14.102Z,24.50
2023-05-25T09:29:42.178Z,24.50
2023-05-25T09:32:09.939Z,24.50
2023-05-25T09:34:37.729Z,24.50
2023-05-25T09:37:12.047Z,24.50
2023-05-25T09:39:40.818Z,24.50
2023-05-25T09:42:08.748Z,24.50
2023-05-25T09:44:36.480Z,24.50
2023-05-25T09:47:05.055Z,24.50
2023-05-25T09:49:32.805Z,24.50
2023-05-25T09:52:01.136Z,24.60
2023-05-25T09:54:30.246Z,24.60
2023-05-25T09:56:58.026Z,24.60
2023-05-25T09:59:25.775Z,24.50
2023-05-25T10:01:54.114Z,24.60
2023-05-25T10:04:21.979Z,24.60
2023-05-25T10:06:50.806Z,24.60
2023-05-25T10:09:19.502Z,24.70
2023-05-25T10:11:48.531Z,24.70
2023-05-25T10:14:18.808Z,24.70
2023-05-25T10:16:47.115Z,24.70
2023-05-25T10:19:18.378Z,24.70
2023-05-25T10:21:46.631Z,24.70
2023-05-25T10:24:16.098Z,24.70
2023-05-25T10:26:44.450Z,24.80
2023-05-25T10:29:13.862Z,24.80
2023-05-25T10:31:41.797Z,24.80
2023-05-25T10:34:09.636Z,24.80
2023-05-25T10:36:38.064Z,24.80
2023-05-25T10:39:07.156Z,24.80
2023-05-25T10:41:34.933Z,24.80
2023-05-25T10:44:02.693Z,24.80
2023-05-25T10:46:31.829Z,24.80
2023-05-25T10:49:02.499Z,24.90
2023-05-25T10:51:39.778Z,24.90
2023-05-25T10:54:07.766Z,24.90
2023-05-25T10:56:35.851Z,24.90
2023-05-25T10:59:03.601Z,24.90
2023-05-25T11:01:34.034Z,24.90
2023-05-25T11:04:17.064Z,24.90
2023-05-25T11:07:08.269Z,25.00
2023-05-25T11:09:38.721Z,25.00
2023-05-25T11:12:06.859Z,25.00
2023-05-25T11:14:37.683Z,25.10
2023-05-25T11:17:10.529Z,25.00
2023-05-25T11:19:47.867Z,25.00
2023-05-25T11:22:19.078Z,25.00
2023-05-25T11:24:47.360Z,25.00
2023-05-25T11:27:15.195Z,25.00
2023-05-25T11:29:43.001Z,25.00
2023-05-25T11:32:16.135Z,25.00
2023-05-25T11:34:46.599Z,25.00
2023-05-25T11:37:15.919Z,25.10
2023-05-25T11:39:44.443Z,25.10
2023-05-25T11:42:12.260Z,25.10
2023-05-25T11:44:39.992Z,25.20
2023-05-25T11:47:09.979Z,25.10
2023-05-25T11:49:44.140Z,25.10
2023-05-25T11:52:11.905Z,25.20
2023-05-25T11:54:41.240Z,25.20
2023-05-25T11:57:15.228Z,25.10
2023-05-25T11:59:48.489Z,25.10
2023-05-25T12:02:16.232Z,25.00
2023-05-25T12:04:53.592Z,24.80
2023-05-25T12:07:21.413Z,24.80
2023-05-25T12:09:49.220Z,24.90
2023-05-25T12:12:16.961Z,24.90
2023-05-25T12:14:48.343Z,25.00
2023-05-25T12:17:16.779Z,25.00
2023-05-25T12:19:45.890Z,25.10
2023-05-25T12:22:13.633Z,25.20
2023-05-25T12:24:41.340Z,25.20
2023-05-25T12:27:17.702Z,25.20
2023-05-25T12:29:46.916Z,25.30
2023-05-25T12:32:14.698Z,25.30
2023-05-25T12:34:42.482Z,25.40
2023-05-25T12:37:20.729Z,25.30
2023-05-25T12:39:48.570Z,25.40
2023-05-25T12:42:16.804Z,25.50
2023-05-25T12:44:45.046Z,25.40
2023-05-25T12:47:13.902Z,25.50
2023-05-25T12:49:41.982Z,25.60
2023-05-25T12:52:10.127Z,25.60
2023-05-25T12:54:42.151Z,25.60
2023-05-25T12:57:10.591Z,25.60
2023-05-25T12:59:38.641Z,25.60
2023-05-25T13:02:06.797Z,25.60
2023-05-25T13:04:34.864Z,25.60
2023-05-25T13:07:02.789Z,25.60
2023-05-25T13:09:30.785Z,25.60
2023-05-25T13:12:00.542Z,25.70
2023-05-25T13:14:28.242Z,25.70
2023-05-25T13:16:56.542Z,25.70
2023-05-25T13:19:25.426Z,25.70
2023-05-25T13:21:53.190Z,25.80
2023-05-25T13:24:20.908Z,25.70
2023-05-25T13:26:50.819Z,25.70
2023-05-25T13:29:20.375Z,25.70
2023-05-25T13:31:48.218Z,25.80
2023-05-25T13:34:16.100Z,25.80
2023-05-25T13:36:43.829Z,25.80
2023-05-25T13:39:13.449Z,25.80
2023-05-25T13:41:42.718Z,25.80
2023-05-25T13:44:13.243Z,25.80
2023-05-25T13:46:43.229Z,25.80
2023-05-25T13:49:11.768Z,25.70
2023-05-25T13:51:39.570Z,25.80
2023-05-25T13:54:07.304Z,25.80
2023-05-25T13:56:35.051Z,25.80
2023-05-25T13:59:02.772Z,25.70
2023-05-25T14:01:32.445Z,25.80
2023-05-25T14:04:01.888Z,25.70
2023-05-25T14:06:30.533Z,25.70
2023-05-25T14:08:58.552Z,25.60
2023-05-25T14:11:28.633Z,25.60
2023-05-25T14:13:56.587Z,25.50
2023-05-25T14:16:24.383Z,25.40
2023-05-25T14:18:52.174Z,25.30
2023-05-25T14:21:21.309Z,25.20
2023-05-25T14:23:49.060Z,25.10
2023-05-25T14:26:16.780Z,25.00
2023-05-25T14:28:44.529Z,25.00
2023-05-25T14:31:12.922Z,25.00
2023-05-25T14:33:42.840Z,24.90
2023-05-25T14:36:10.954Z,24.90
2023-05-25T14:38:40.237Z,24.80
2023-05-25T14:41:07.962Z,24.90
2023-05-25T14:43:35.746Z,24.80
2023-05-25T14:46:03.446Z,24.80
2023-05-25T14:48:31.353Z,24.80
2023-05-25T14:51:00.151Z,24.80
2023-05-25T14:53:27.910Z,24.70
2023-05-25T14:55:57.692Z,24.70
2023-05-25T14:58:25.424Z,24.70
2023-05-25T15:00:53.192Z,24.80
2023-05-25T15:03:21.070Z,24.80
2023-05-25T15:05:48.982Z,24.90
2023-05-25T15:08:16.726Z,25.00
2023-05-25T15:10:44.590Z,25.10
2023-05-25T15:13:13.726Z,25.10
2023-05-25T15:15:41.673Z,25.20
2023-05-25T15:18:09.516Z,25.20
2023-05-25T15:20:37.397Z,25.20
2023-05-25T15:23:05.206Z,25.20
2023-05-25T15:25:35.508Z,25.30
2023-05-25T15:28:03.904Z,25.30
2023-05-25T15:30:34.207Z,25.50
2023-05-25T15:33:02.162Z,25.60
2023-05-25T15:35:32.268Z,25.70
2023-05-25T15:38:00.212Z,25.80
2023-05-25T15:40:27.943Z,25.80
2023-05-25T15:42:56.130Z,25.90
2023-05-25T15:45:24.906Z,25.90
2023-05-25T15:47:54.036Z,25.90
2023-05-25T15:50:21.801Z,26.10
2023-05-25T15:52:49.507Z,26.20
2023-05-25T15:55:17.200Z,26.30
2023-05-25T15:57:44.928Z,26.40
2023-05-25T16:00:14.110Z,26.40
2023-05-25T16:02:41.863Z,26.60
2023-05-25T16:05:11.119Z,26.80
2023-05-25T16:07:38.846Z,27.00
2023-05-25T16:10:07.580Z,27.20
2023-05-25T16:12:35.283Z,27.30
2023-05-25T16:15:03.004Z,27.40
2023-05-25T16:17:30.775Z,27.50
2023-05-25T16:19:58.551Z,27.50
2023-05-25T16:22:27.639Z,27.40
2023-05-25T16:24:55.339Z,27.40
2023-05-25T16:27:23.128Z,27.10
2023-05-25T16:29:50.879Z,26.80
2023-05-25T16:32:18.667Z,26.90
2023-05-25T16:34:46.402Z,27.00
2023-05-25T16:37:14.213Z,27.10
2023-05-25T16:39:43.255Z,27.10
2023-05-25T16:42:10.987Z,27.20
2023-05-25T16:44:38.704Z,27.20
2023-05-25T16:47:06.820Z,27.20
2023-05-25T16:49:34.556Z,27.20
2023-05-25T16:52:03.148Z,27.20
2023-05-25T16:54:30.861Z,27.20
2023-05-25T16:56:59.946Z,27.10
2023-05-25T16:59:27.681Z,27.00
2023-05-25T17:01:55.778Z,26.90
2023-05-25T17:04:23.589Z,27.00
2023-05-25T17:06:51.304Z,27.00
2023-05-25T17:09:19.035Z,27.00
2023-05-25T17:11:46.831Z,27.00
2023-05-25T17:14:16.368Z,27.00
2023-05-25T17:16:44.123Z,27.00
2023-05-25T17:19:14.800Z,27.00
2023-05-25T17:21:42.727Z,26.90
2023-05-25T17:24:10.915Z,26.90
2023-05-25T17:26:38.641Z,26.90
2023-05-25T17:29:06.616Z,26.90
2023-05-25T17:31:35.734Z,26.90
2023-05-25T17:34:03.596Z,26.90
2023-05-25T17:36:31.927Z,26.80
2023-05-25T17:38:59.685Z,26.80
2023-05-25T17:41:27.628Z,26.80
2023-05-25T17:43:55.375Z,26.70
2023-05-25T17:46:23.207Z,26.70
2023-05-25T17:48:52.285Z,26.70
2023-05-25T17:51:20.995Z,26.60
2023-05-25T17:53:48.727Z,26.60
2023-05-25T17:56:16.458Z,26.60
2023-05-25T17:58:47.371Z,26.50
2023-05-25T18:01:15.739Z,26.50
2023-05-25T18:03:43.773Z,26.50
2023-05-25T18:06:12.855Z,26.50
2023-05-25T18:08:40.622Z,26.40
2023-05-25T18:11:08.416Z,26.40
2023-05-25T18:13:36.173Z,26.40
2023-05-25T18:16:03.954Z,26.30
2023-05-25T18:18:31.730Z,26.30
2023-05-25T18:21:00.029Z,26.30
2023-05-25T18:23:29.125Z,26.20
2023-05-25T18:25:56.949Z,26.20
2023-05-25T18:28:24.716Z,26.20
2023-05-25T18:30:52.466Z,26.10
2023-05-25T18:33:20.586Z,26.10
2023-05-25T18:35:48.674Z,26.10
2023-05-25T18:38:16.394Z,26.10
2023-05-25T18:40:45.559Z,26.00
2023-05-25T18:43:13.292Z,26.00
2023-05-25T18:45:41.019Z,25.90
2023-05-25T18:48:08.939Z,25.90
2023-05-25T18:50:37.536Z,25.90
2023-05-25T18:53:07.560Z,25.90
2023-05-25T18:55:36.005Z,25.80
2023-05-25T18:58:05.040Z,25.80
2023-05-25T19:00:32.766Z,25.80
2023-05-25T19:03:00.768Z,25.70
2023-05-25T19:05:28.556Z,25.70
2023-05-25T19:07:59.721Z,25.70
2023-05-25T19:10:28.061Z,25.60
2023-05-25T19:12:55.946Z,25.60
2023-05-25T19:15:25.196Z,25.60
2023-05-25T19:17:53.014Z,25.60
2023-05-25T19:20:20.781Z,25.60
2023-05-25T19:22:48.496Z,25.50
2023-05-25T19:25:16.256Z,25.50
2023-05-25T19:27:43.999Z,25.50
2023-05-25T19:30:12.401Z,25.40
2023-05-25T19:32:41.888Z,25.40
2023-05-25T19:35:10.108Z,25.40
2023-05-25T19:37:38.814Z,25.40
2023-05-25T19:40:08.837Z,25.30
2023-05-25T19:42:36.575Z,25.30
2023-05-25T19:45:04.493Z,25.30
2023-05-25T19:47:32.412Z,25.30
2023-05-25T19:50:01.557Z,25.20
2023-05-25T19:52:29.299Z,25.20
2023-05-25T19:54:57.106Z,25.20
2023-05-25T19:57:26.107Z,25.20
2023-05-25T19:59:53.913Z,25.20
2023-05-25T20:02:21.908Z,25.10
2023-05-25T20:04:49.668Z,25.10
2023-05-25T20:07:18.880Z,25.10
2023-05-25T20:09:46.755Z,25.10
2023-05-25T20:12:16.163Z,25.00
2023-05-25T20:14:44.181Z,25.00
2023-05-25T20:17:11.932Z,25.00
2023-05-25T20:19:39.715Z,25.00
2023-05-25T20:22:08.187Z,24.90
2023-05-25T20:24:37.298Z,24.90
2023-05-25T20:27:05.957Z,24.90
2023-05-25T20:29:34.050Z,24.90
2023-05-25T20:32:01.949Z,24.90
2023-05-25T20:34:29.686Z,24.80
2023-05-25T20:36:57.379Z,24.80
2023-05-25T20:39:25.128Z,24.80
2023-05-25T20:41:54.222Z,24.80
2023-05-25T20:44:21.962Z,24.80
2023-05-25T20:46:49.713Z,24.80
2023-05-25T20:49:17.433Z,24.80
2023-05-25T20:51:49.818Z,24.70
2023-05-25T20:54:17.619Z,24.70
2023-05-25T20:56:46.370Z,24.70
2023-05-25T20:59:15.511Z,24.70
2023-05-25T21:01:44.102Z,24.70
2023-05-25T21:04:11.937Z,24.70
2023-05-25T21:06:39.682Z,24.70
2023-05-25T21:09:07.448Z,24.60
2023-05-25T21:11:35.192Z,24.60
2023-05-25T21:14:03.233Z,24.60
2023-05-25T21:16:32.334Z,24.60
2023-05-25T21:19:00.128Z,24.60
2023-05-25T21:21:28.029Z,24.60
2023-05-25T21:23:55.845Z,24.50
2023-05-25T21:26:23.574Z,24.50
2023-05-25T21:28:51.288Z,24.50
2023-05-25T21:31:20.198Z,24.50
2023-05-25T21:33:49.279Z,24.50
2023-05-25T21:36:17.013Z,24.50
2023-05-25T21:38:44.770Z,24.50
2023-05-25T21:41:12.474Z,24.50
2023-05-25T21:43:40.185Z,24.50
2023-05-25T21:46:07.919Z,24.40
2023-05-25T21:48:35.772Z,24.40
2023-05-25T21:51:05.457Z,24.40
2023-05-25T21:53:33.514Z,24.40
2023-05-25T21:56:01.233Z,24.40
2023-05-25T21:58:28.960Z,24.40
2023-05-25T22:00:56.773Z,24.30
2023-05-25T22:03:24.644Z,24.30
2023-05-25T22:05:52.643Z,24.30
2023-05-25T22:08:21.667Z,24.30
2023-05-25T22:10:49.366Z,24.30
2023-05-25T22:13:17.097Z,24.30
2023-05-25T22:15:45.086Z,24.30
2023-05-25T22:18:13.040Z,24.30
2023-05-25T22:20:42.026Z,24.30
2023-05-25T22:23:12.021Z,24.30
2023-05-25T22:25:41.348Z,24.30
2023-05-25T22:28:09.075Z,24.20
2023-05-25T22:30:36.796Z,24.20
2023-05-25T22:33:04.672Z,24.20
2023-05-25T22:35:32.417Z,24.20
2023-05-25T22:38:00.250Z,24.20
2023-05-25T22:40:27.972Z,24.20
2023-05-25T22:42:56.958Z,24.20
2023-05-25T22:45:24.639Z,24.10
2023-05-25T22:47:52.381Z,24.10
2023-05-25T22:50:20.098Z,24.10
2023-05-25T22:52:47.853Z,24.10
2023-05-25T22:55:16.055Z,24.10
2023-05-25T22:57:43.762Z,24.10
2023-05-25T23:00:13.617Z,24.00
2023-05-25T23:02:41.412Z,24.00
2023-05-25T23:05:09.931Z,24.00
2023-05-25T23:07:37.653Z,24.00
2023-05-25T23:10:06.130Z,24.00
2023-05-25T23:12:33.859Z,24.00
2023-05-25T23:15:02.628Z,24.00
2023-05-25T23:17:32.523Z,24.00
2023-05-25T23:20:00.364Z,24.00
2023-05-25T23:22:28.081Z,24.00
2023-05-25T23:24:55.784Z,24.00
2023-05-25T23:27:23.485Z,24.00
2023-05-25T23:29:51.192Z,24.00
2023-05-25T23:32:18.919Z,23.90
2023-05-25T23:34:47.943Z,23.90
2023-05-25T23:37:15.648Z,23.90
2023-05-25T23:39:43.470Z,23.90
2023-05-25T23:42:15.193Z,23.90
2023-05-25T23:44:42.998Z,23.90
2023-05-25T23:47:10.727Z,23.90
2023-05-25T23:49:38.440Z,23.90
2023-05-25T23:52:08.190Z,23.80
2023-05-25T23:54:35.977Z,23.80
2023-05-25T23:57:03.731Z,23.80
2023-05-25T23:59:31.428Z,23.90
